sensor_id;sensor_type;location;lat;lon;timestamp;P1;durP1;ratioP1;P2;durP2;ratioP2
61527;SDS011;47395;42.032;-8.634;2023-06-10T00:00:11;17.60;;;5.93;;
61527;SDS011;47395;42.032;-8.634;2023-06-10T00:02:16;17.17;;;5.68;;
61527;SDS011;47395;42.032;-8.634;2023-06-10T00:04:17;17.25;;;5.47;;
61527;SDS011;47395;42.032;-8.634;2023-06-10T00:06:18;22.73;;;5.38;;
61527;SDS011;47395;42.032;-8.634;2023-06-10T00:08:19;17.08;;;5.53;;
61527;SDS011;47395;42.032;-8.634;2023-06-10T00:10:20;14.48;;;5.40;;
61527;SDS011;47395;42.032;-8.634;2023-06-10T00:12:20;16.33;;;5.65;;
61527;SDS011;47395;42.032;-8.634;2023-06-10T00:14:21;21.27;;;5.90;;
61527;SDS011;47395;42.032;-8.634;2023-06-10T00:16:22;17.02;;;5.32;;
61527;SDS011;47395;42.032;-8.634;2023-06-10T00:18:23;12.02;;;4.97;;
61527;SDS011;47395;42.032;-8.634;2023-06-10T00:20:24;15.93;;;5.03;;
61527;SDS011;47395;42.032;-8.634;2023-06-10T00:22:25;18.65;;;6.03;;
61527;SDS011;47395;42.032;-8.634;2023-06-10T00:24:29;11.38;;;5.15;;
61527;SDS011;47395;42.032;-8.634;2023-06-10T00:26:30;18.33;;;5.78;;
61527;SDS011;47395;42.032;-8.634;2023-06-10T00:28:32;16.15;;;5.35;;
61527;SDS011;47395;42.032;-8.634;2023-06-10T00:30:33;20.35;;;5.72;;
61527;SDS011;47395;42.032;-8.634;2023-06-10T00:32:34;24.10;;;5.30;;
61527;SDS011;47395;42.032;-8.634;2023-06-10T00:34:36;12.82;;;5.72;;
61527;SDS011;47395;42.032;-8.634;2023-06-10T00:36:37;17.15;;;5.70;;
61527;SDS011;47395;42.032;-8.634;2023-06-10T00:38:38;15.90;;;5.55;;
61527;SDS011;47395;42.032;-8.634;2023-06-10T00:40:40;26.02;;;5.38;;
61527;SDS011;47395;42.032;-8.634;2023-06-10T00:42:41;21.30;;;5.95;;
61527;SDS011;47395;42.032;-8.634;2023-06-10T00:44:42;16.85;;;5.60;;
61527;SDS011;47395;42.032;-8.634;2023-06-10T00:46:44;17.30;;;5.53;;
61527;SDS011;47395;42.032;-8.634;2023-06-10T00:48:45;23.00;;;6.30;;
61527;SDS011;47395;42.032;-8.634;2023-06-10T00:50:47;17.83;;;5.45;;
61527;SDS011;47395;42.032;-8.634;2023-06-10T00:52:48;13.05;;;5.13;;
61527;SDS011;47395;42.032;-8.634;2023-06-10T00:54:51;24.00;;;5.40;;
61527;SDS011;47395;42.032;-8.634;2023-06-10T00:56:52;17.80;;;5.28;;
61527;SDS011;47395;42.032;-8.634;2023-06-10T00:58:54;17.98;;;5.35;;
61527;SDS011;47395;42.032;-8.634;2023-06-10T01:00:55;24.30;;;5.20;;
61527;SDS011;47395;42.032;-8.634;2023-06-10T01:02:55;22.20;;;6.00;;
61527;SDS011;47395;42.032;-8.634;2023-06-10T01:04:57;22.48;;;5.35;;
61527;SDS011;47395;42.032;-8.634;2023-06-10T01:07:10;29.08;;;6.10;;
61527;SDS011;47395;42.032;-8.634;2023-06-10T01:09:28;32.30;;;6.57;;
61527;SDS011;47395;42.032;-8.634;2023-06-10T01:11:37;17.73;;;5.43;;
61527;SDS011;47395;42.032;-8.634;2023-06-10T01:14:09;16.88;;;5.80;;
61527;SDS011;47395;42.032;-8.634;2023-06-10T01:16:10;16.25;;;5.43;;
61527;SDS011;47395;42.032;-8.634;2023-06-10T01:18:12;21.25;;;6.05;;
61527;SDS011;47395;42.032;-8.634;2023-06-10T01:20:15;16.88;;;5.20;;
61527;SDS011;47395;42.032;-8.634;2023-06-10T01:22:16;19.92;;;6.00;;
61527;SDS011;47395;42.032;-8.634;2023-06-10T01:24:18;23.00;;;5.63;;
61527;SDS011;47395;42.032;-8.634;2023-06-10T01:26:20;15.23;;;5.35;;
61527;SDS011;47395;42.032;-8.634;2023-06-10T01:28:40;20.52;;;5.95;;
61527;SDS011;47395;42.032;-8.634;2023-06-10T01:33:28;25.95;;;5.90;;
61527;SDS011;47395;42.032;-8.634;2023-06-10T01:35:33;11.65;;;4.88;;
61527;SDS011;47395;42.032;-8.634;2023-06-10T01:37:38;23.55;;;5.10;;
61527;SDS011;47395;42.032;-8.634;2023-06-10T01:39:40;11.18;;;5.07;;
61527;SDS011;47395;42.032;-8.634;2023-06-10T01:41:43;13.50;;;5.47;;
61527;SDS011;47395;42.032;-8.634;2023-06-10T01:43:44;14.15;;;5.20;;
61527;SDS011;47395;42.032;-8.634;2023-06-10T01:45:47;16.35;;;5.35;;
61527;SDS011;47395;42.032;-8.634;2023-06-10T01:47:48;24.42;;;5.95;;
61527;SDS011;47395;42.032;-8.634;2023-06-10T01:49:49;17.92;;;5.68;;
61527;SDS011;47395;42.032;-8.634;2023-06-10T01:51:50;18.80;;;6.32;;
61527;SDS011;47395;42.032;-8.634;2023-06-10T01:53:51;13.63;;;5.20;;
61527;SDS011;47395;42.032;-8.634;2023-06-10T01:55:51;19.73;;;5.72;;
61527;SDS011;47395;42.032;-8.634;2023-06-10T01:57:52;17.50;;;6.30;;
61527;SDS011;47395;42.032;-8.634;2023-06-10T01:59:53;11.18;;;5.03;;
61527;SDS011;47395;42.032;-8.634;2023-06-10T02:01:54;17.73;;;5.40;;
61527;SDS011;47395;42.032;-8.634;2023-06-10T02:03:54;20.83;;;5.65;;
61527;SDS011;47395;42.032;-8.634;2023-06-10T02:05:55;23.83;;;5.93;;
61527;SDS011;47395;42.032;-8.634;2023-06-10T02:07:56;13.35;;;5.70;;
61527;SDS011;47395;42.032;-8.634;2023-06-10T02:09:57;15.45;;;5.05;;
61527;SDS011;47395;42.032;-8.634;2023-06-10T02:11:58;20.98;;;5.43;;
61527;SDS011;47395;42.032;-8.634;2023-06-10T02:13:59;20.98;;;6.07;;
61527;SDS011;47395;42.032;-8.634;2023-06-10T02:16:00;24.65;;;6.00;;
61527;SDS011;47395;42.032;-8.634;2023-06-10T02:18:03;14.82;;;6.20;;
61527;SDS011;47395;42.032;-8.634;2023-06-10T02:20:05;17.33;;;5.53;;
61527;SDS011;47395;42.032;-8.634;2023-06-10T02:22:07;24.08;;;6.45;;
61527;SDS011;47395;42.032;-8.634;2023-06-10T02:24:09;20.30;;;5.47;;
61527;SDS011;47395;42.032;-8.634;2023-06-10T02:26:10;20.17;;;5.97;;
61527;SDS011;47395;42.032;-8.634;2023-06-10T02:28:11;18.27;;;5.97;;
61527;SDS011;47395;42.032;-8.634;2023-06-10T02:30:12;13.80;;;5.90;;
61527;SDS011;47395;42.032;-8.634;2023-06-10T02:32:14;12.60;;;5.28;;
61527;SDS011;47395;42.032;-8.634;2023-06-10T02:34:16;23.42;;;7.68;;
61527;SDS011;47395;42.032;-8.634;2023-06-10T02:36:17;14.13;;;5.50;;
61527;SDS011;47395;42.032;-8.634;2023-06-10T02:38:18;14.38;;;4.95;;
61527;SDS011;47395;42.032;-8.634;2023-06-10T02:40:19;14.85;;;5.60;;
61527;SDS011;47395;42.032;-8.634;2023-06-10T02:42:20;18.65;;;5.30;;
61527;SDS011;47395;42.032;-8.634;2023-06-10T02:44:22;17.00;;;5.82;;
61527;SDS011;47395;42.032;-8.634;2023-06-10T02:46:23;15.30;;;5.10;;
61527;SDS011;47395;42.032;-8.634;2023-06-10T02:48:27;18.52;;;5.40;;
61527;SDS011;47395;42.032;-8.634;2023-06-10T02:50:28;18.83;;;5.63;;
61527;SDS011;47395;42.032;-8.634;2023-06-10T02:52:37;20.73;;;5.50;;
61527;SDS011;47395;42.032;-8.634;2023-06-10T02:54:38;16.13;;;5.55;;
61527;SDS011;47395;42.032;-8.634;2023-06-10T02:56:41;16.65;;;5.60;;
61527;SDS011;47395;42.032;-8.634;2023-06-10T02:58:48;20.52;;;5.57;;
61527;SDS011;47395;42.032;-8.634;2023-06-10T03:00:51;17.08;;;5.20;;
61527;SDS011;47395;42.032;-8.634;2023-06-10T03:02:51;19.48;;;5.93;;
61527;SDS011;47395;42.032;-8.634;2023-06-10T03:04:57;19.27;;;5.90;;
61527;SDS011;47395;42.032;-8.634;2023-06-10T03:06:58;18.70;;;6.20;;
61527;SDS011;47395;42.032;-8.634;2023-06-10T03:09:06;21.48;;;6.25;;
61527;SDS011;47395;42.032;-8.634;2023-06-10T03:11:20;14.98;;;6.03;;
61527;SDS011;47395;42.032;-8.634;2023-06-10T03:13:22;25.65;;;7.35;;
61527;SDS011;47395;42.032;-8.634;2023-06-10T03:15:24;18.05;;;5.32;;
61527;SDS011;47395;42.032;-8.634;2023-06-10T03:17:25;16.48;;;5.75;;
61527;SDS011;47395;42.032;-8.634;2023-06-10T03:19:27;13.27;;;5.63;;
61527;SDS011;47395;42.032;-8.634;2023-06-10T03:21:28;22.25;;;6.47;;
61527;SDS011;47395;42.032;-8.634;2023-06-10T03:23:31;20.85;;;5.60;;
61527;SDS011;47395;42.032;-8.634;2023-06-10T03:25:34;16.88;;;5.30;;
61527;SDS011;47395;42.032;-8.634;2023-06-10T03:27:35;19.52;;;5.10;;
61527;SDS011;47395;42.032;-8.634;2023-06-10T03:29:39;15.52;;;4.90;;
61527;SDS011;47395;42.032;-8.634;2023-06-10T03:31:41;13.48;;;5.15;;
61527;SDS011;47395;42.032;-8.634;2023-06-10T03:33:42;19.77;;;5.55;;
61527;SDS011;47395;42.032;-8.634;2023-06-10T03:35:44;9.05;;;4.43;;
61527;SDS011;47395;42.032;-8.634;2023-06-10T03:37:46;19.00;;;6.10;;
61527;SDS011;47395;42.032;-8.634;2023-06-10T03:39:47;10.25;;;4.65;;
61527;SDS011;47395;42.032;-8.634;2023-06-10T03:41:48;13.43;;;4.93;;
61527;SDS011;47395;42.032;-8.634;2023-06-10T03:43:50;17.65;;;5.60;;
61527;SDS011;47395;42.032;-8.634;2023-06-10T03:45:51;11.07;;;4.75;;
61527;SDS011;47395;42.032;-8.634;2023-06-10T03:47:52;7.30;;;4.57;;
61527;SDS011;47395;42.032;-8.634;2023-06-10T03:49:57;16.52;;;5.65;;
61527;SDS011;47395;42.032;-8.634;2023-06-10T03:51:58;14.38;;;5.10;;
61527;SDS011;47395;42.032;-8.634;2023-06-10T03:54:00;16.98;;;5.15;;
61527;SDS011;47395;42.032;-8.634;2023-06-10T03:56:01;11.90;;;4.80;;
61527;SDS011;47395;42.032;-8.634;2023-06-10T03:58:03;13.93;;;5.07;;
61527;SDS011;47395;42.032;-8.634;2023-06-10T04:00:04;9.75;;;4.35;;
61527;SDS011;47395;42.032;-8.634;2023-06-10T04:04:22;14.52;;;4.72;;
61527;SDS011;47395;42.032;-8.634;2023-06-10T04:06:23;6.60;;;3.88;;
61527;SDS011;47395;42.032;-8.634;2023-06-10T04:08:29;10.18;;;4.28;;
61527;SDS011;47395;42.032;-8.634;2023-06-10T04:10:30;7.63;;;4.00;;
61527;SDS011;47395;42.032;-8.634;2023-06-10T04:12:30;13.38;;;3.65;;
61527;SDS011;47395;42.032;-8.634;2023-06-10T04:14:31;7.75;;;4.20;;
61527;SDS011;47395;42.032;-8.634;2023-06-10T04:16:32;11.20;;;4.00;;
61527;SDS011;47395;42.032;-8.634;2023-06-10T04:18:34;6.55;;;3.53;;
61527;SDS011;47395;42.032;-8.634;2023-06-10T04:20:40;8.13;;;4.38;;
61527;SDS011;47395;42.032;-8.634;2023-06-10T04:22:41;7.22;;;3.80;;
61527;SDS011;47395;42.032;-8.634;2023-06-10T04:24:41;7.70;;;3.22;;
61527;SDS011;47395;42.032;-8.634;2023-06-10T04:26:43;10.20;;;4.05;;
61527;SDS011;47395;42.032;-8.634;2023-06-10T04:28:45;8.23;;;3.63;;
61527;SDS011;47395;42.032;-8.634;2023-06-10T04:30:47;14.65;;;4.47;;
61527;SDS011;47395;42.032;-8.634;2023-06-10T04:32:48;10.68;;;4.00;;
61527;SDS011;47395;42.032;-8.634;2023-06-10T04:34:51;7.72;;;3.92;;
61527;SDS011;47395;42.032;-8.634;2023-06-10T04:36:53;7.15;;;4.03;;
61527;SDS011;47395;42.032;-8.634;2023-06-10T04:38:54;10.32;;;4.63;;
61527;SDS011;47395;42.032;-8.634;2023-06-10T04:40:56;8.30;;;5.10;;
61527;SDS011;47395;42.032;-8.634;2023-06-10T04:42:57;10.85;;;5.38;;
61527;SDS011;47395;42.032;-8.634;2023-06-10T04:44:59;10.35;;;5.20;;
61527;SDS011;47395;42.032;-8.634;2023-06-10T04:47:00;13.23;;;5.10;;
61527;SDS011;47395;42.032;-8.634;2023-06-10T04:49:01;8.30;;;5.05;;
61527;SDS011;47395;42.032;-8.634;2023-06-10T04:51:02;7.57;;;4.85;;
61527;SDS011;47395;42.032;-8.634;2023-06-10T04:53:03;15.20;;;5.05;;
61527;SDS011;47395;42.032;-8.634;2023-06-10T04:55:05;7.60;;;4.85;;
61527;SDS011;47395;42.032;-8.634;2023-06-10T04:57:06;17.63;;;5.72;;
61527;SDS011;47395;42.032;-8.634;2023-06-10T04:59:08;12.75;;;5.40;;
61527;SDS011;47395;42.032;-8.634;2023-06-10T05:01:08;7.45;;;5.50;;
61527;SDS011;47395;42.032;-8.634;2023-06-10T05:03:09;8.02;;;5.13;;
61527;SDS011;47395;42.032;-8.634;2023-06-10T05:05:10;9.20;;;4.93;;
61527;SDS011;47395;42.032;-8.634;2023-06-10T05:07:11;14.60;;;4.95;;
61527;SDS011;47395;42.032;-8.634;2023-06-10T05:09:12;11.85;;;5.18;;
61527;SDS011;47395;42.032;-8.634;2023-06-10T05:11:13;12.13;;;5.45;;
61527;SDS011;47395;42.032;-8.634;2023-06-10T05:13:14;11.25;;;6.30;;
61527;SDS011;47395;42.032;-8.634;2023-06-10T05:15:17;15.23;;;5.47;;
61527;SDS011;47395;42.032;-8.634;2023-06-10T05:17:17;9.32;;;5.80;;
61527;SDS011;47395;42.032;-8.634;2023-06-10T05:19:18;14.90;;;5.68;;
61527;SDS011;47395;42.032;-8.634;2023-06-10T05:21:19;11.15;;;5.45;;
61527;SDS011;47395;42.032;-8.634;2023-06-10T05:23:20;9.23;;;5.18;;
61527;SDS011;47395;42.032;-8.634;2023-06-10T05:25:21;12.45;;;5.43;;
61527;SDS011;47395;42.032;-8.634;2023-06-10T05:27:22;11.50;;;5.28;;
61527;SDS011;47395;42.032;-8.634;2023-06-10T05:29:23;10.65;;;5.72;;
61527;SDS011;47395;42.032;-8.634;2023-06-10T05:31:24;12.23;;;5.63;;
61527;SDS011;47395;42.032;-8.634;2023-06-10T05:33:25;15.10;;;5.65;;
61527;SDS011;47395;42.032;-8.634;2023-06-10T05:35:25;11.85;;;5.30;;
61527;SDS011;47395;42.032;-8.634;2023-06-10T05:37:26;15.60;;;5.28;;
61527;SDS011;47395;42.032;-8.634;2023-06-10T05:39:27;14.82;;;4.93;;
61527;SDS011;47395;42.032;-8.634;2023-06-10T05:41:28;11.18;;;5.22;;
61527;SDS011;47395;42.032;-8.634;2023-06-10T05:43:29;12.27;;;4.63;;
61527;SDS011;47395;42.032;-8.634;2023-06-10T05:45:30;6.70;;;4.40;;
61527;SDS011;47395;42.032;-8.634;2023-06-10T05:47:30;7.75;;;4.80;;
61527;SDS011;47395;42.032;-8.634;2023-06-10T05:49:31;15.20;;;4.78;;
61527;SDS011;47395;42.032;-8.634;2023-06-10T05:51:32;7.60;;;4.32;;
61527;SDS011;47395;42.032;-8.634;2023-06-10T05:53:33;9.75;;;4.78;;
61527;SDS011;47395;42.032;-8.634;2023-06-10T05:55:34;10.23;;;4.90;;
61527;SDS011;47395;42.032;-8.634;2023-06-10T05:57:34;6.28;;;3.85;;
61527;SDS011;47395;42.032;-8.634;2023-06-10T05:59:35;7.45;;;3.95;;
61527;SDS011;47395;42.032;-8.634;2023-06-10T06:01:36;7.03;;;4.60;;
61527;SDS011;47395;42.032;-8.634;2023-06-10T06:03:37;8.50;;;4.20;;
61527;SDS011;47395;42.032;-8.634;2023-06-10T06:05:38;8.15;;;4.28;;
61527;SDS011;47395;42.032;-8.634;2023-06-10T06:07:39;5.53;;;4.40;;
61527;SDS011;47395;42.032;-8.634;2023-06-10T06:09:40;10.27;;;4.03;;
61527;SDS011;47395;42.032;-8.634;2023-06-10T06:11:41;9.63;;;4.55;;
61527;SDS011;47395;42.032;-8.634;2023-06-10T06:13:42;7.75;;;4.45;;
61527;SDS011;47395;42.032;-8.634;2023-06-10T06:15:42;12.52;;;4.20;;
61527;SDS011;47395;42.032;-8.634;2023-06-10T06:17:43;6.60;;;4.22;;
61527;SDS011;47395;42.032;-8.634;2023-06-10T06:19:44;5.95;;;4.15;;
61527;SDS011;47395;42.032;-8.634;2023-06-10T06:21:47;12.13;;;3.78;;
61527;SDS011;47395;42.032;-8.634;2023-06-10T06:23:48;7.70;;;3.92;;
61527;SDS011;47395;42.032;-8.634;2023-06-10T06:25:49;8.40;;;3.65;;
61527;SDS011;47395;42.032;-8.634;2023-06-10T06:27:49;10.07;;;3.97;;
61527;SDS011;47395;42.032;-8.634;2023-06-10T06:29:50;10.73;;;3.97;;
61527;SDS011;47395;42.032;-8.634;2023-06-10T06:31:51;8.48;;;3.67;;
61527;SDS011;47395;42.032;-8.634;2023-06-10T06:33:52;11.88;;;4.50;;
61527;SDS011;47395;42.032;-8.634;2023-06-10T06:35:53;11.43;;;4.18;;
61527;SDS011;47395;42.032;-8.634;2023-06-10T06:37:53;8.70;;;3.97;;
61527;SDS011;47395;42.032;-8.634;2023-06-10T06:39:59;8.95;;;3.60;;
61527;SDS011;47395;42.032;-8.634;2023-06-10T06:42:00;8.15;;;4.45;;
61527;SDS011;47395;42.032;-8.634;2023-06-10T06:44:16;4.80;;;3.78;;
61527;SDS011;47395;42.032;-8.634;2023-06-10T06:46:19;9.35;;;3.72;;
61527;SDS011;47395;42.032;-8.634;2023-06-10T06:48:20;5.22;;;3.75;;
61527;SDS011;47395;42.032;-8.634;2023-06-10T06:50:21;5.00;;;3.60;;
61527;SDS011;47395;42.032;-8.634;2023-06-10T06:52:22;13.18;;;3.88;;
61527;SDS011;47395;42.032;-8.634;2023-06-10T06:54:22;7.97;;;4.07;;
61527;SDS011;47395;42.032;-8.634;2023-06-10T06:56:23;9.77;;;4.22;;
61527;SDS011;47395;42.032;-8.634;2023-06-10T06:58:24;8.73;;;3.88;;
61527;SDS011;47395;42.032;-8.634;2023-06-10T07:00:25;10.15;;;3.90;;
61527;SDS011;47395;42.032;-8.634;2023-06-10T07:02:26;8.45;;;3.70;;
61527;SDS011;47395;42.032;-8.634;2023-06-10T07:04:27;7.75;;;3.45;;
61527;SDS011;47395;42.032;-8.634;2023-06-10T07:06:27;7.32;;;3.38;;
61527;SDS011;47395;42.032;-8.634;2023-06-10T07:08:28;7.85;;;3.72;;
61527;SDS011;47395;42.032;-8.634;2023-06-10T07:10:29;11.98;;;4.43;;
61527;SDS011;47395;42.032;-8.634;2023-06-10T07:12:30;11.80;;;4.43;;
61527;SDS011;47395;42.032;-8.634;2023-06-10T07:14:32;11.90;;;4.38;;
61527;SDS011;47395;42.032;-8.634;2023-06-10T07:16:33;13.48;;;4.25;;
61527;SDS011;47395;42.032;-8.634;2023-06-10T07:18:34;11.80;;;4.00;;
61527;SDS011;47395;42.032;-8.634;2023-06-10T07:20:35;9.98;;;4.18;;
61527;SDS011;47395;42.032;-8.634;2023-06-10T07:22:36;12.65;;;4.30;;
61527;SDS011;47395;42.032;-8.634;2023-06-10T07:24:39;17.58;;;4.72;;
61527;SDS011;47395;42.032;-8.634;2023-06-10T07:26:40;10.40;;;4.22;;
61527;SDS011;47395;42.032;-8.634;2023-06-10T07:28:41;13.98;;;4.43;;
61527;SDS011;47395;42.032;-8.634;2023-06-10T07:30:42;13.30;;;4.25;;
61527;SDS011;47395;42.032;-8.634;2023-06-10T07:32:43;12.13;;;4.80;;
61527;SDS011;47395;42.032;-8.634;2023-06-10T07:34:45;8.73;;;4.05;;
61527;SDS011;47395;42.032;-8.634;2023-06-10T07:36:46;18.88;;;4.90;;
61527;SDS011;47395;42.032;-8.634;2023-06-10T07:38:47;16.08;;;4.93;;
61527;SDS011;47395;42.032;-8.634;2023-06-10T07:40:48;16.90;;;4.47;;
61527;SDS011;47395;42.032;-8.634;2023-06-10T07:42:49;17.17;;;5.03;;
61527;SDS011;47395;42.032;-8.634;2023-06-10T07:44:50;11.30;;;4.57;;
61527;SDS011;47395;42.032;-8.634;2023-06-10T07:46:51;13.75;;;4.20;;
61527;SDS011;47395;42.032;-8.634;2023-06-10T07:48:52;11.95;;;4.38;;
61527;SDS011;47395;42.032;-8.634;2023-06-10T07:50:54;10.68;;;3.92;;
61527;SDS011;47395;42.032;-8.634;2023-06-10T07:52:54;14.50;;;4.43;;
61527;SDS011;47395;42.032;-8.634;2023-06-10T07:54:55;12.88;;;4.65;;
61527;SDS011;47395;42.032;-8.634;2023-06-10T07:56:56;14.52;;;4.65;;
61527;SDS011;47395;42.032;-8.634;2023-06-10T07:58:57;15.07;;;4.05;;
61527;SDS011;47395;42.032;-8.634;2023-06-10T08:00:57;18.15;;;4.88;;
61527;SDS011;47395;42.032;-8.634;2023-06-10T08:02:58;15.27;;;4.63;;
61527;SDS011;47395;42.032;-8.634;2023-06-10T08:04:59;12.52;;;4.97;;
61527;SDS011;47395;42.032;-8.634;2023-06-10T08:07:00;14.25;;;5.22;;
61527;SDS011;47395;42.032;-8.634;2023-06-10T08:09:00;15.27;;;5.00;;
61527;SDS011;47395;42.032;-8.634;2023-06-10T08:11:01;14.95;;;5.22;;
61527;SDS011;47395;42.032;-8.634;2023-06-10T08:13:02;21.15;;;6.38;;
61527;SDS011;47395;42.032;-8.634;2023-06-10T08:15:03;18.90;;;5.13;;
61527;SDS011;47395;42.032;-8.634;2023-06-10T08:17:04;24.75;;;5.32;;
61527;SDS011;47395;42.032;-8.634;2023-06-10T08:19:06;17.33;;;5.63;;
61527;SDS011;47395;42.032;-8.634;2023-06-10T08:21:09;17.95;;;6.30;;
61527;SDS011;47395;42.032;-8.634;2023-06-10T08:23:10;16.70;;;5.43;;
61527;SDS011;47395;42.032;-8.634;2023-06-10T08:25:11;21.00;;;6.40;;
61527;SDS011;47395;42.032;-8.634;2023-06-10T08:27:11;11.05;;;5.25;;
61527;SDS011;47395;42.032;-8.634;2023-06-10T08:29:12;22.05;;;5.90;;
61527;SDS011;47395;42.032;-8.634;2023-06-10T08:31:13;17.02;;;5.97;;
61527;SDS011;47395;42.032;-8.634;2023-06-10T08:33:14;19.80;;;6.35;;
61527;SDS011;47395;42.032;-8.634;2023-06-10T08:35:15;12.88;;;5.47;;
61527;SDS011;47395;42.032;-8.634;2023-06-10T08:37:16;18.17;;;6.20;;
61527;SDS011;47395;42.032;-8.634;2023-06-10T08:39:17;15.05;;;5.05;;
61527;SDS011;47395;42.032;-8.634;2023-06-10T08:41:18;12.13;;;4.22;;
61527;SDS011;47395;42.032;-8.634;2023-06-10T08:43:32;9.52;;;4.18;;
61527;SDS011;47395;42.032;-8.634;2023-06-10T08:45:36;12.80;;;3.33;;
61527;SDS011;47395;42.032;-8.634;2023-06-10T08:47:37;14.30;;;4.40;;
61527;SDS011;47395;42.032;-8.634;2023-06-10T08:49:43;14.27;;;3.63;;
61527;SDS011;47395;42.032;-8.634;2023-06-10T08:51:48;8.95;;;3.35;;
61527;SDS011;47395;42.032;-8.634;2023-06-10T08:53:53;4.85;;;2.90;;
61527;SDS011;47395;42.032;-8.634;2023-06-10T08:56:01;8.68;;;3.78;;
61527;SDS011;47395;42.032;-8.634;2023-06-10T08:58:04;12.90;;;3.85;;
61527;SDS011;47395;42.032;-8.634;2023-06-10T09:00:05;7.97;;;3.40;;
61527;SDS011;47395;42.032;-8.634;2023-06-10T09:02:07;5.65;;;2.83;;
61527;SDS011;47395;42.032;-8.634;2023-06-10T09:04:09;8.02;;;3.08;;
61527;SDS011;47395;42.032;-8.634;2023-06-10T09:06:10;5.32;;;3.22;;
61527;SDS011;47395;42.032;-8.634;2023-06-10T09:08:11;6.78;;;2.88;;
61527;SDS011;47395;42.032;-8.634;2023-06-10T09:10:13;5.65;;;2.65;;
61527;SDS011;47395;42.032;-8.634;2023-06-10T09:12:14;6.13;;;2.90;;
61527;SDS011;47395;42.032;-8.634;2023-06-10T09:14:15;8.95;;;3.38;;
61527;SDS011;47395;42.032;-8.634;2023-06-10T09:16:16;7.80;;;3.55;;
61527;SDS011;47395;42.032;-8.634;2023-06-10T09:18:17;6.63;;;2.75;;
61527;SDS011;47395;42.032;-8.634;2023-06-10T09:20:18;10.40;;;3.17;;
61527;SDS011;47395;42.032;-8.634;2023-06-10T09:22:19;10.85;;;2.72;;
61527;SDS011;47395;42.032;-8.634;2023-06-10T09:24:22;6.40;;;2.58;;
61527;SDS011;47395;42.032;-8.634;2023-06-10T09:26:27;11.88;;;3.45;;
61527;SDS011;47395;42.032;-8.634;2023-06-10T09:28:30;14.52;;;6.47;;
61527;SDS011;47395;42.032;-8.634;2023-06-10T09:30:33;9.48;;;4.80;;
61527;SDS011;47395;42.032;-8.634;2023-06-10T09:32:38;9.73;;;3.72;;
61527;SDS011;47395;42.032;-8.634;2023-06-10T09:34:39;10.73;;;4.20;;
61527;SDS011;47395;42.032;-8.634;2023-06-10T09:36:41;5.28;;;3.10;;
61527;SDS011;47395;42.032;-8.634;2023-06-10T09:38:41;10.20;;;3.50;;
61527;SDS011;47395;42.032;-8.634;2023-06-10T09:41:01;8.88;;;2.97;;
61527;SDS011;47395;42.032;-8.634;2023-06-10T09:43:03;5.63;;;2.72;;
61527;SDS011;47395;42.032;-8.634;2023-06-10T09:45:04;7.80;;;3.10;;
61527;SDS011;47395;42.032;-8.634;2023-06-10T09:47:06;8.43;;;3.47;;
61527;SDS011;47395;42.032;-8.634;2023-06-10T09:49:07;8.93;;;3.20;;
61527;SDS011;47395;42.032;-8.634;2023-06-10T09:51:09;6.47;;;2.75;;
61527;SDS011;47395;42.032;-8.634;2023-06-10T09:53:11;5.93;;;3.03;;
61527;SDS011;47395;42.032;-8.634;2023-06-10T09:55:12;10.45;;;2.72;;
61527;SDS011;47395;42.032;-8.634;2023-06-10T09:57:12;12.00;;;3.60;;
61527;SDS011;47395;42.032;-8.634;2023-06-10T09:59:14;7.53;;;3.15;;
61527;SDS011;47395;42.032;-8.634;2023-06-10T10:01:16;8.23;;;3.55;;
61527;SDS011;47395;42.032;-8.634;2023-06-10T10:03:22;6.47;;;3.60;;
61527;SDS011;47395;42.032;-8.634;2023-06-10T10:05:23;9.02;;;3.10;;
61527;SDS011;47395;42.032;-8.634;2023-06-10T10:07:24;7.80;;;3.22;;
61527;SDS011;47395;42.032;-8.634;2023-06-10T10:09:25;16.73;;;3.00;;
61527;SDS011;47395;42.032;-8.634;2023-06-10T10:11:26;6.78;;;2.70;;
61527;SDS011;47395;42.032;-8.634;2023-06-10T10:13:27;8.90;;;3.00;;
61527;SDS011;47395;42.032;-8.634;2023-06-10T10:15:29;10.98;;;2.70;;
61527;SDS011;47395;42.032;-8.634;2023-06-10T10:17:32;9.52;;;3.05;;
61527;SDS011;47395;42.032;-8.634;2023-06-10T10:19:37;6.68;;;2.88;;
61527;SDS011;47395;42.032;-8.634;2023-06-10T10:21:53;13.13;;;3.75;;
61527;SDS011;47395;42.032;-8.634;2023-06-10T10:24:08;8.75;;;3.97;;
61527;SDS011;47395;42.032;-8.634;2023-06-10T10:26:14;7.78;;;2.88;;
61527;SDS011;47395;42.032;-8.634;2023-06-10T10:28:17;12.43;;;3.35;;
61527;SDS011;47395;42.032;-8.634;2023-06-10T10:30:21;9.68;;;2.95;;
61527;SDS011;47395;42.032;-8.634;2023-06-10T10:32:29;10.38;;;2.75;;
61527;SDS011;47395;42.032;-8.634;2023-06-10T10:34:57;11.15;;;3.40;;
61527;SDS011;47395;42.032;-8.634;2023-06-10T10:37:07;8.23;;;3.20;;
61527;SDS011;47395;42.032;-8.634;2023-06-10T10:39:08;5.88;;;2.35;;
61527;SDS011;47395;42.032;-8.634;2023-06-10T10:41:10;6.78;;;2.33;;
61527;SDS011;47395;42.032;-8.634;2023-06-10T10:43:12;4.75;;;1.90;;
61527;SDS011;47395;42.032;-8.634;2023-06-10T10:45:14;5.10;;;1.80;;
61527;SDS011;47395;42.032;-8.634;2023-06-10T10:47:16;5.95;;;2.17;;
61527;SDS011;47395;42.032;-8.634;2023-06-10T10:49:21;5.97;;;2.58;;
61527;SDS011;47395;42.032;-8.634;2023-06-10T10:51:23;5.40;;;2.00;;
61527;SDS011;47395;42.032;-8.634;2023-06-10T10:53:25;6.97;;;3.05;;
61527;SDS011;47395;42.032;-8.634;2023-06-10T10:55:26;7.38;;;2.45;;
61527;SDS011;47395;42.032;-8.634;2023-06-10T10:57:29;6.50;;;2.08;;
61527;SDS011;47395;42.032;-8.634;2023-06-10T10:59:52;3.47;;;1.80;;
61527;SDS011;47395;42.032;-8.634;2023-06-10T11:01:59;4.47;;;1.80;;
61527;SDS011;47395;42.032;-8.634;2023-06-10T11:04:00;5.07;;;1.67;;
61527;SDS011;47395;42.032;-8.634;2023-06-10T11:06:01;3.85;;;1.50;;
61527;SDS011;47395;42.032;-8.634;2023-06-10T11:08:13;4.47;;;1.55;;
61527;SDS011;47395;42.032;-8.634;2023-06-10T11:10:14;3.25;;;1.60;;
61527;SDS011;47395;42.032;-8.634;2023-06-10T11:12:21;5.50;;;1.92;;
61527;SDS011;47395;42.032;-8.634;2023-06-10T11:14:27;4.60;;;1.85;;
61527;SDS011;47395;42.032;-8.634;2023-06-10T11:16:29;5.90;;;1.73;;
61527;SDS011;47395;42.032;-8.634;2023-06-10T11:18:30;7.85;;;2.20;;
61527;SDS011;47395;42.032;-8.634;2023-06-10T11:23:09;8.82;;;2.25;;
61527;SDS011;47395;42.032;-8.634;2023-06-10T11:25:16;4.75;;;2.25;;
61527;SDS011;47395;42.032;-8.634;2023-06-10T11:29:26;9.80;;;2.50;;
61527;SDS011;47395;42.032;-8.634;2023-06-10T11:31:30;7.57;;;2.00;;
61527;SDS011;47395;42.032;-8.634;2023-06-10T11:33:39;9.68;;;2.80;;
61527;SDS011;47395;42.032;-8.634;2023-06-10T11:35:40;6.47;;;2.35;;
61527;SDS011;47395;42.032;-8.634;2023-06-10T11:37:41;7.25;;;2.45;;
61527;SDS011;47395;42.032;-8.634;2023-06-10T11:39:42;8.57;;;2.60;;
61527;SDS011;47395;42.032;-8.634;2023-06-10T11:41:43;6.22;;;2.00;;
61527;SDS011;47395;42.032;-8.634;2023-06-10T11:43:45;10.02;;;2.92;;
61527;SDS011;47395;42.032;-8.634;2023-06-10T11:45:47;14.75;;;3.17;;
61527;SDS011;47395;42.032;-8.634;2023-06-10T11:47:57;9.57;;;2.92;;
61527;SDS011;47395;42.032;-8.634;2023-06-10T11:49:59;13.02;;;2.72;;
61527;SDS011;47395;42.032;-8.634;2023-06-10T11:52:00;6.18;;;2.72;;
61527;SDS011;47395;42.032;-8.634;2023-06-10T11:54:00;8.07;;;3.35;;
61527;SDS011;47395;42.032;-8.634;2023-06-10T11:56:02;10.70;;;2.90;;
61527;SDS011;47395;42.032;-8.634;2023-06-10T11:58:03;9.73;;;3.65;;
61527;SDS011;47395;42.032;-8.634;2023-06-10T12:00:06;6.57;;;2.72;;
61527;SDS011;47395;42.032;-8.634;2023-06-10T12:02:27;10.50;;;3.33;;
61527;SDS011;47395;42.032;-8.634;2023-06-10T12:04:28;9.02;;;3.22;;
61527;SDS011;47395;42.032;-8.634;2023-06-10T12:08:43;9.55;;;2.95;;
61527;SDS011;47395;42.032;-8.634;2023-06-10T12:10:44;12.70;;;4.40;;